sensor_id;sensor_type;location;lat;lon;timestamp;P1;durP1;ratioP1;P2;durP2;ratioP2
57730;SDS011;43570;47.476;19.040;2022-07-04T00:00:37;7.28;;;4.18;;
57730;SDS011;43570;47.476;19.040;2022-07-04T00:03:02;6.45;;;4.05;;
57730;SDS011;43570;47.476;19.040;2022-07-04T00:05:27;6.22;;;4.00;;
57730;SDS011;43570;47.476;19.040;2022-07-04T00:07:53;9.02;;;4.07;;
57730;SDS011;43570;47.476;19.040;2022-07-04T00:10:18;6.20;;;4.30;;
57730;SDS011;43570;47.476;19.040;2022-07-04T00:12:45;5.35;;;3.67;;
57730;SDS011;43570;47.476;19.040;2022-07-04T00:15:11;6.22;;;3.85;;
57730;SDS011;43570;47.476;19.040;2022-07-04T00:17:37;6.10;;;3.87;;
57730;SDS011;43570;47.476;19.040;2022-07-04T00:20:03;6.62;;;4.20;;
57730;SDS011;43570;47.476;19.040;2022-07-04T00:22:29;6.72;;;3.92;;
57730;SDS011;43570;47.476;19.040;2022-07-04T00:24:55;6.15;;;4.18;;
57730;SDS011;43570;47.476;19.040;2022-07-04T00:27:20;6.03;;;3.97;;
57730;SDS011;43570;47.476;19.040;2022-07-04T00:29:45;5.72;;;4.45;;
57730;SDS011;43570;47.476;19.040;2022-07-04T00:32:11;6.50;;;4.20;;
57730;SDS011;43570;47.476;19.040;2022-07-04T00:34:36;6.00;;;3.90;;
57730;SDS011;43570;47.476;19.040;2022-07-04T00:37:02;5.50;;;4.10;;
57730;SDS011;43570;47.476;19.040;2022-07-04T00:39:28;6.78;;;4.18;;
57730;SDS011;43570;47.476;19.040;2022-07-04T00:41:54;5.62;;;4.35;;
57730;SDS011;43570;47.476;19.040;2022-07-04T00:44:19;6.20;;;3.67;;
57730;SDS011;43570;47.476;19.040;2022-07-04T00:46:46;6.75;;;4.40;;
57730;SDS011;43570;47.476;19.040;2022-07-04T00:49:13;7.97;;;4.60;;
57730;SDS011;43570;47.476;19.040;2022-07-04T00:51:40;5.45;;;4.03;;
57730;SDS011;43570;47.476;19.040;2022-07-04T00:54:06;6.55;;;4.28;;
57730;SDS011;43570;47.476;19.040;2022-07-04T00:56:35;5.07;;;3.72;;
57730;SDS011;43570;47.476;19.040;2022-07-04T00:59:20;5.55;;;4.20;;
57730;SDS011;43570;47.476;19.040;2022-07-04T01:01:45;7.12;;;4.20;;
57730;SDS011;43570;47.476;19.040;2022-07-04T01:04:11;6.32;;;4.43;;
57730;SDS011;43570;47.476;19.040;2022-07-04T01:06:36;5.75;;;4.30;;
57730;SDS011;43570;47.476;19.040;2022-07-04T01:09:02;6.87;;;3.83;;
57730;SDS011;43570;47.476;19.040;2022-07-04T01:11:27;5.93;;;4.10;;
57730;SDS011;43570;47.476;19.040;2022-07-04T01:13:56;5.75;;;3.50;;
57730;SDS011;43570;47.476;19.040;2022-07-04T01:16:21;5.70;;;3.97;;
57730;SDS011;43570;47.476;19.040;2022-07-04T01:18:49;5.20;;;4.12;;
57730;SDS011;43570;47.476;19.040;2022-07-04T01:21:17;5.72;;;4.25;;
57730;SDS011;43570;47.476;19.040;2022-07-04T01:23:43;6.75;;;4.50;;
57730;SDS011;43570;47.476;19.040;2022-07-04T01:26:08;9.00;;;4.37;;
57730;SDS011;43570;47.476;19.040;2022-07-04T01:28:34;7.28;;;4.00;;
57730;SDS011;43570;47.476;19.040;2022-07-04T01:31:00;6.62;;;4.37;;
57730;SDS011;43570;47.476;19.040;2022-07-04T01:33:25;7.25;;;4.35;;
57730;SDS011;43570;47.476;19.040;2022-07-04T01:35:51;6.12;;;4.30;;
57730;SDS011;43570;47.476;19.040;2022-07-04T01:38:16;5.93;;;4.22;;
57730;SDS011;43570;47.476;19.040;2022-07-04T01:40:42;7.28;;;4.45;;
57730;SDS011;43570;47.476;19.040;2022-07-04T01:43:07;5.95;;;4.80;;
57730;SDS011;43570;47.476;19.040;2022-07-04T01:45:32;5.53;;;4.47;;
57730;SDS011;43570;47.476;19.040;2022-07-04T01:47:59;5.90;;;4.43;;
57730;SDS011;43570;47.476;19.040;2022-07-04T01:50:25;5.22;;;4.22;;
57730;SDS011;43570;47.476;19.040;2022-07-04T01:52:51;6.68;;;4.60;;
57730;SDS011;43570;47.476;19.040;2022-07-04T01:55:16;7.45;;;4.40;;
57730;SDS011;43570;47.476;19.040;2022-07-04T01:57:42;7.05;;;4.72;;
57730;SDS011;43570;47.476;19.040;2022-07-04T02:00:08;7.18;;;4.90;;
57730;SDS011;43570;47.476;19.040;2022-07-04T02:02:54;5.95;;;4.60;;
57730;SDS011;43570;47.476;19.040;2022-07-04T02:05:19;6.82;;;4.80;;
57730;SDS011;43570;47.476;19.040;2022-07-04T02:07:45;8.00;;;4.85;;
57730;SDS011;43570;47.476;19.040;2022-07-04T02:10:10;5.97;;;4.80;;
57730;SDS011;43570;47.476;19.040;2022-07-04T02:12:36;8.20;;;4.90;;
57730;SDS011;43570;47.476;19.040;2022-07-04T02:15:20;7.15;;;5.05;;
57730;SDS011;43570;47.476;19.040;2022-07-04T02:17:46;7.18;;;4.93;;
57730;SDS011;43570;47.476;19.040;2022-07-04T02:20:12;6.85;;;4.87;;
57730;SDS011;43570;47.476;19.040;2022-07-04T02:22:38;6.22;;;4.43;;
57730;SDS011;43570;47.476;19.040;2022-07-04T02:25:03;6.62;;;5.10;;
57730;SDS011;43570;47.476;19.040;2022-07-04T02:27:29;10.13;;;4.80;;
57730;SDS011;43570;47.476;19.040;2022-07-04T02:29:55;6.20;;;4.70;;
57730;SDS011;43570;47.476;19.040;2022-07-04T02:32:20;6.87;;;4.93;;
57730;SDS011;43570;47.476;19.040;2022-07-04T02:34:46;5.85;;;4.60;;
57730;SDS011;43570;47.476;19.040;2022-07-04T02:37:11;6.80;;;5.00;;
57730;SDS011;43570;47.476;19.040;2022-07-04T02:39:36;9.85;;;4.97;;
57730;SDS011;43570;47.476;19.040;2022-07-04T02:42:02;8.55;;;5.10;;
57730;SDS011;43570;47.476;19.040;2022-07-04T02:44:27;6.43;;;5.28;;
57730;SDS011;43570;47.476;19.040;2022-07-04T02:46:53;7.50;;;4.85;;
57730;SDS011;43570;47.476;19.040;2022-07-04T02:49:19;7.22;;;5.37;;
57730;SDS011;43570;47.476;19.040;2022-07-04T02:51:44;6.18;;;4.90;;
57730;SDS011;43570;47.476;19.040;2022-07-04T02:54:10;10.88;;;5.90;;
57730;SDS011;43570;47.476;19.040;2022-07-04T02:56:35;12.93;;;5.65;;
57730;SDS011;43570;47.476;19.040;2022-07-04T02:59:00;9.07;;;5.20;;
57730;SDS011;43570;47.476;19.040;2022-07-04T03:01:26;8.95;;;5.40;;
57730;SDS011;43570;47.476;19.040;2022-07-04T03:03:51;9.18;;;5.72;;
57730;SDS011;43570;47.476;19.040;2022-07-04T03:06:17;7.57;;;5.25;;
57730;SDS011;43570;47.476;19.040;2022-07-04T03:08:42;6.62;;;4.72;;
57730;SDS011;43570;47.476;19.040;2022-07-04T03:11:08;8.82;;;4.93;;
57730;SDS011;43570;47.476;19.040;2022-07-04T03:13:33;10.70;;;5.25;;
57730;SDS011;43570;47.476;19.040;2022-07-04T03:16:00;8.52;;;5.60;;
57730;SDS011;43570;47.476;19.040;2022-07-04T03:18:25;6.35;;;4.90;;
57730;SDS011;43570;47.476;19.040;2022-07-04T03:20:51;8.40;;;5.35;;
57730;SDS011;43570;47.476;19.040;2022-07-04T03:23:16;8.00;;;5.37;;
57730;SDS011;43570;47.476;19.040;2022-07-04T03:25:41;7.43;;;5.10;;
57730;SDS011;43570;47.476;19.040;2022-07-04T03:28:07;8.75;;;5.18;;
57730;SDS011;43570;47.476;19.040;2022-07-04T03:30:33;8.73;;;5.32;;
57730;SDS011;43570;47.476;19.040;2022-07-04T03:32:58;6.62;;;5.10;;
57730;SDS011;43570;47.476;19.040;2022-07-04T03:35:24;7.53;;;5.53;;
57730;SDS011;43570;47.476;19.040;2022-07-04T03:37:50;7.18;;;4.90;;
57730;SDS011;43570;47.476;19.040;2022-07-04T03:40:16;7.57;;;5.12;;
57730;SDS011;43570;47.476;19.040;2022-07-04T03:42:42;8.23;;;5.28;;
57730;SDS011;43570;47.476;19.040;2022-07-04T03:45:08;7.53;;;5.47;;
57730;SDS011;43570;47.476;19.040;2022-07-04T03:47:34;11.05;;;5.70;;
57730;SDS011;43570;47.476;19.040;2022-07-04T03:50:00;9.27;;;5.22;;
57730;SDS011;43570;47.476;19.040;2022-07-04T03:52:26;8.82;;;5.68;;
57730;SDS011;43570;47.476;19.040;2022-07-04T03:54:51;9.30;;;6.25;;
57730;SDS011;43570;47.476;19.040;2022-07-04T03:57:16;7.45;;;5.50;;
57730;SDS011;43570;47.476;19.040;2022-07-04T03:59:42;8.75;;;5.95;;
57730;SDS011;43570;47.476;19.040;2022-07-04T04:02:07;7.55;;;5.53;;
57730;SDS011;43570;47.476;19.040;2022-07-04T04:04:33;9.00;;;5.30;;
57730;SDS011;43570;47.476;19.040;2022-07-04T04:07:16;6.95;;;5.82;;
57730;SDS011;43570;47.476;19.040;2022-07-04T04:09:42;8.52;;;5.75;;
57730;SDS011;43570;47.476;19.040;2022-07-04T04:12:07;7.95;;;5.22;;
57730;SDS011;43570;47.476;19.040;2022-07-04T04:14:33;7.68;;;5.57;;
57730;SDS011;43570;47.476;19.040;2022-07-04T04:16:58;8.68;;;5.72;;
57730;SDS011;43570;47.476;19.040;2022-07-04T04:19:24;8.20;;;5.65;;
57730;SDS011;43570;47.476;19.040;2022-07-04T04:21:49;7.32;;;5.85;;
57730;SDS011;43570;47.476;19.040;2022-07-04T04:24:14;5.72;;;5.12;;
57730;SDS011;43570;47.476;19.040;2022-07-04T04:26:40;8.85;;;6.32;;
57730;SDS011;43570;47.476;19.040;2022-07-04T04:29:05;8.90;;;7.05;;
57730;SDS011;43570;47.476;19.040;2022-07-04T04:31:31;8.30;;;6.07;;
57730;SDS011;43570;47.476;19.040;2022-07-04T04:33:56;9.27;;;5.65;;
57730;SDS011;43570;47.476;19.040;2022-07-04T04:36:22;9.05;;;6.12;;
57730;SDS011;43570;47.476;19.040;2022-07-04T04:38:47;9.23;;;6.35;;
57730;SDS011;43570;47.476;19.040;2022-07-04T04:41:13;7.85;;;5.93;;
57730;SDS011;43570;47.476;19.040;2022-07-04T04:43:38;7.22;;;6.03;;
57730;SDS011;43570;47.476;19.040;2022-07-04T04:46:03;9.45;;;6.18;;
57730;SDS011;43570;47.476;19.040;2022-07-04T04:48:29;7.40;;;5.75;;
57730;SDS011;43570;47.476;19.040;2022-07-04T04:50:54;7.72;;;5.95;;
57730;SDS011;43570;47.476;19.040;2022-07-04T04:53:19;7.47;;;5.32;;
57730;SDS011;43570;47.476;19.040;2022-07-04T04:55:47;7.32;;;4.90;;
57730;SDS011;43570;47.476;19.040;2022-07-04T04:58:13;7.07;;;5.43;;
57730;SDS011;43570;47.476;19.040;2022-07-04T05:00:38;6.50;;;5.43;;
57730;SDS011;43570;47.476;19.040;2022-07-04T05:03:04;9.20;;;6.90;;
57730;SDS011;43570;47.476;19.040;2022-07-04T05:05:29;7.50;;;6.07;;
57730;SDS011;43570;47.476;19.040;2022-07-04T05:07:55;7.57;;;5.90;;
57730;SDS011;43570;47.476;19.040;2022-07-04T05:10:20;9.27;;;6.05;;
57730;SDS011;43570;47.476;19.040;2022-07-04T05:12:46;7.37;;;6.15;;
57730;SDS011;43570;47.476;19.040;2022-07-04T05:15:11;7.28;;;6.15;;
57730;SDS011;43570;47.476;19.040;2022-07-04T05:17:37;9.02;;;6.70;;
57730;SDS011;43570;47.476;19.040;2022-07-04T05:20:02;8.13;;;5.95;;
57730;SDS011;43570;47.476;19.040;2022-07-04T05:22:28;8.77;;;6.20;;
57730;SDS011;43570;47.476;19.040;2022-07-04T05:24:53;7.60;;;6.50;;
57730;SDS011;43570;47.476;19.040;2022-07-04T05:27:18;7.47;;;6.00;;
57730;SDS011;43570;47.476;19.040;2022-07-04T05:29:44;6.57;;;5.57;;
57730;SDS011;43570;47.476;19.040;2022-07-04T05:32:09;7.15;;;5.87;;
57730;SDS011;43570;47.476;19.040;2022-07-04T05:34:35;9.18;;;6.35;;
57730;SDS011;43570;47.476;19.040;2022-07-04T05:37:01;6.60;;;5.70;;
57730;SDS011;43570;47.476;19.040;2022-07-04T05:39:27;6.37;;;5.35;;
57730;SDS011;43570;47.476;19.040;2022-07-04T05:41:53;6.65;;;5.30;;
57730;SDS011;43570;47.476;19.040;2022-07-04T05:44:19;5.80;;;5.07;;
57730;SDS011;43570;47.476;19.040;2022-07-04T05:46:44;5.70;;;4.70;;
57730;SDS011;43570;47.476;19.040;2022-07-04T05:49:09;6.93;;;5.32;;
57730;SDS011;43570;47.476;19.040;2022-07-04T05:51:35;7.78;;;5.00;;
57730;SDS011;43570;47.476;19.040;2022-07-04T05:54:00;6.60;;;4.90;;
57730;SDS011;43570;47.476;19.040;2022-07-04T05:56:25;6.72;;;4.45;;
57730;SDS011;43570;47.476;19.040;2022-07-04T05:58:51;9.70;;;5.40;;
57730;SDS011;43570;47.476;19.040;2022-07-04T06:01:17;6.45;;;4.60;;
57730;SDS011;43570;47.476;19.040;2022-07-04T06:03:43;9.07;;;5.37;;
57730;SDS011;43570;47.476;19.040;2022-07-04T06:06:08;7.97;;;5.20;;
57730;SDS011;43570;47.476;19.040;2022-07-04T06:08:33;6.60;;;3.85;;
57730;SDS011;43570;47.476;19.040;2022-07-04T06:10:59;6.10;;;4.03;;
57730;SDS011;43570;47.476;19.040;2022-07-04T06:13:24;4.87;;;3.83;;
57730;SDS011;43570;47.476;19.040;2022-07-04T06:15:50;5.25;;;3.50;;
57730;SDS011;43570;47.476;19.040;2022-07-04T06:18:15;5.80;;;4.12;;
57730;SDS011;43570;47.476;19.040;2022-07-04T06:20:41;6.82;;;3.55;;
57730;SDS011;43570;47.476;19.040;2022-07-04T06:23:06;5.53;;;3.47;;
57730;SDS011;43570;47.476;19.040;2022-07-04T06:25:32;4.68;;;3.15;;
57730;SDS011;43570;47.476;19.040;2022-07-04T06:27:58;4.68;;;3.60;;
57730;SDS011;43570;47.476;19.040;2022-07-04T06:30:24;6.30;;;4.37;;
57730;SDS011;43570;47.476;19.040;2022-07-04T06:32:50;6.53;;;3.67;;
57730;SDS011;43570;47.476;19.040;2022-07-04T06:35:19;9.90;;;3.65;;
57730;SDS011;43570;47.476;19.040;2022-07-04T06:38:04;7.05;;;3.70;;
57730;SDS011;43570;47.476;19.040;2022-07-04T06:40:29;7.22;;;3.60;;
57730;SDS011;43570;47.476;19.040;2022-07-04T06:42:55;4.70;;;3.45;;
57730;SDS011;43570;47.476;19.040;2022-07-04T06:45:20;4.47;;;3.62;;
57730;SDS011;43570;47.476;19.040;2022-07-04T06:47:45;4.12;;;3.00;;
57730;SDS011;43570;47.476;19.040;2022-07-04T06:50:11;4.85;;;3.20;;
57730;SDS011;43570;47.476;19.040;2022-07-04T06:52:37;5.87;;;3.45;;
57730;SDS011;43570;47.476;19.040;2022-07-04T06:55:03;4.05;;;3.03;;
57730;SDS011;43570;47.476;19.040;2022-07-04T06:57:29;4.28;;;3.50;;
57730;SDS011;43570;47.476;19.040;2022-07-04T06:59:54;10.25;;;3.78;;
57730;SDS011;43570;47.476;19.040;2022-07-04T07:02:20;4.57;;;3.17;;
57730;SDS011;43570;47.476;19.040;2022-07-04T07:04:45;3.97;;;2.87;;
57730;SDS011;43570;47.476;19.040;2022-07-04T07:07:11;3.72;;;2.85;;
57730;SDS011;43570;47.476;19.040;2022-07-04T07:09:36;6.22;;;3.20;;
57730;SDS011;43570;47.476;19.040;2022-07-04T07:12:01;5.62;;;4.03;;
57730;SDS011;43570;47.476;19.040;2022-07-04T07:14:27;4.78;;;3.10;;
57730;SDS011;43570;47.476;19.040;2022-07-04T07:16:54;5.22;;;3.00;;
57730;SDS011;43570;47.476;19.040;2022-07-04T07:19:20;4.80;;;3.15;;
57730;SDS011;43570;47.476;19.040;2022-07-04T07:21:45;4.87;;;3.50;;
57730;SDS011;43570;47.476;19.040;2022-07-04T07:24:11;4.97;;;3.03;;
57730;SDS011;43570;47.476;19.040;2022-07-04T07:26:36;4.32;;;2.90;;
57730;SDS011;43570;47.476;19.040;2022-07-04T07:29:02;6.53;;;3.00;;
57730;SDS011;43570;47.476;19.040;2022-07-04T07:31:27;5.90;;;3.10;;
57730;SDS011;43570;47.476;19.040;2022-07-04T07:33:53;3.37;;;2.40;;
57730;SDS011;43570;47.476;19.040;2022-07-04T07:36:19;4.93;;;3.37;;
57730;SDS011;43570;47.476;19.040;2022-07-04T07:38:44;5.53;;;2.80;;
57730;SDS011;43570;47.476;19.040;2022-07-04T07:41:10;3.42;;;2.50;;
57730;SDS011;43570;47.476;19.040;2022-07-04T07:43:36;6.97;;;2.70;;
57730;SDS011;43570;47.476;19.040;2022-07-04T07:46:03;4.30;;;2.30;;
57730;SDS011;43570;47.476;19.040;2022-07-04T07:48:30;3.45;;;2.22;;
57730;SDS011;43570;47.476;19.040;2022-07-04T07:50:55;5.72;;;2.47;;
57730;SDS011;43570;47.476;19.040;2022-07-04T07:53:21;4.07;;;2.70;;
57730;SDS011;43570;47.476;19.040;2022-07-04T07:55:46;7.93;;;3.92;;
57730;SDS011;43570;47.476;19.040;2022-07-04T07:58:11;3.47;;;2.60;;
57730;SDS011;43570;47.476;19.040;2022-07-04T08:00:37;3.12;;;2.10;;
57730;SDS011;43570;47.476;19.040;2022-07-04T08:03:02;2.78;;;1.83;;
57730;SDS011;43570;47.476;19.040;2022-07-04T08:05:46;5.78;;;2.87;;
57730;SDS011;43570;47.476;19.040;2022-07-04T08:08:13;7.10;;;2.40;;
57730;SDS011;43570;47.476;19.040;2022-07-04T08:10:38;4.22;;;2.17;;
57730;SDS011;43570;47.476;19.040;2022-07-04T08:13:04;4.80;;;1.98;;
57730;SDS011;43570;47.476;19.040;2022-07-04T08:15:30;2.08;;;1.77;;
57730;SDS011;43570;47.476;19.040;2022-07-04T08:17:55;4.12;;;1.90;;
57730;SDS011;43570;47.476;19.040;2022-07-04T08:20:21;4.55;;;2.05;;
57730;SDS011;43570;47.476;19.040;2022-07-04T08:22:47;3.17;;;1.90;;
57730;SDS011;43570;47.476;19.040;2022-07-04T08:25:13;4.30;;;2.12;;
57730;SDS011;43570;47.476;19.040;2022-07-04T08:27:40;4.32;;;2.00;;
57730;SDS011;43570;47.476;19.040;2022-07-04T08:30:06;3.47;;;2.30;;
57730;SDS011;43570;47.476;19.040;2022-07-04T08:32:34;5.12;;;1.98;;
57730;SDS011;43570;47.476;19.040;2022-07-04T08:34:59;3.87;;;2.45;;
57730;SDS011;43570;47.476;19.040;2022-07-04T08:37:25;4.60;;;2.67;;
57730;SDS011;43570;47.476;19.040;2022-07-04T08:39:51;3.58;;;2.22;;
57730;SDS011;43570;47.476;19.040;2022-07-04T08:42:18;6.80;;;2.33;;
57730;SDS011;43570;47.476;19.040;2022-07-04T08:44:46;3.35;;;2.78;;
57730;SDS011;43570;47.476;19.040;2022-07-04T08:49:42;4.32;;;2.40;;
57730;SDS011;43570;47.476;19.040;2022-07-04T08:52:10;4.22;;;2.08;;
57730;SDS011;43570;47.476;19.040;2022-07-04T08:54:37;2.58;;;2.05;;
57730;SDS011;43570;47.476;19.040;2022-07-04T08:57:22;5.10;;;2.90;;
57730;SDS011;43570;47.476;19.040;2022-07-04T09:00:07;3.87;;;2.33;;
57730;SDS011;43570;47.476;19.040;2022-07-04T09:02:33;2.78;;;2.05;;
57730;SDS011;43570;47.476;19.040;2022-07-04T09:04:59;3.28;;;1.95;;
57730;SDS011;43570;47.476;19.040;2022-07-04T09:07:26;5.50;;;3.20;;
57730;SDS011;43570;47.476;19.040;2022-07-04T09:09:53;5.57;;;2.67;;
57730;SDS011;43570;47.476;19.040;2022-07-04T09:12:19;3.83;;;1.77;;
57730;SDS011;43570;47.476;19.040;2022-07-04T09:14:44;2.35;;;1.95;;
57730;SDS011;43570;47.476;19.040;2022-07-04T09:17:10;5.03;;;2.00;;
57730;SDS011;43570;47.476;19.040;2022-07-04T09:19:35;3.90;;;2.00;;
57730;SDS011;43570;47.476;19.040;2022-07-04T09:22:04;3.35;;;2.00;;
57730;SDS011;43570;47.476;19.040;2022-07-04T09:24:45;5.55;;;3.08;;
57730;SDS011;43570;47.476;19.040;2022-07-04T09:27:12;3.00;;;2.10;;
57730;SDS011;43570;47.476;19.040;2022-07-04T09:29:52;3.95;;;2.05;;
57730;SDS011;43570;47.476;19.040;2022-07-04T09:35:03;5.62;;;3.00;;
57730;SDS011;43570;47.476;19.040;2022-07-04T09:37:34;2.05;;;1.80;;
57730;SDS011;43570;47.476;19.040;2022-07-04T09:40:04;4.55;;;2.40;;
57730;SDS011;43570;47.476;19.040;2022-07-04T09:42:51;3.55;;;2.30;;
57730;SDS011;43570;47.476;19.040;2022-07-04T09:45:16;4.50;;;2.80;;
57730;SDS011;43570;47.476;19.040;2022-07-04T09:47:44;3.60;;;2.72;;
57730;SDS011;43570;47.476;19.040;2022-07-04T09:50:12;6.30;;;2.42;;
57730;SDS011;43570;47.476;19.040;2022-07-04T09:52:57;8.02;;;2.80;;
57730;SDS011;43570;47.476;19.040;2022-07-04T09:57:54;5.50;;;2.70;;
57730;SDS011;43570;47.476;19.040;2022-07-04T10:00:21;4.17;;;2.33;;
57730;SDS011;43570;47.476;19.040;2022-07-04T10:02:49;5.07;;;2.40;;
57730;SDS011;43570;47.476;19.040;2022-07-04T10:05:22;4.15;;;2.30;;
57730;SDS011;43570;47.476;19.040;2022-07-04T10:07:49;3.53;;;2.33;;
57730;SDS011;43570;47.476;19.040;2022-07-04T10:10:22;4.05;;;2.42;;
57730;SDS011;43570;47.476;19.040;2022-07-04T10:12:53;5.15;;;3.10;;
57730;SDS011;43570;47.476;19.040;2022-07-04T10:15:22;2.60;;;2.30;;
57730;SDS011;43570;47.476;19.040;2022-07-04T10:17:48;3.70;;;2.20;;
57730;SDS011;43570;47.476;19.040;2022-07-04T10:20:15;3.87;;;2.28;;
57730;SDS011;43570;47.476;19.040;2022-07-04T10:22:41;4.90;;;2.87;;
57730;SDS011;43570;47.476;19.040;2022-07-04T10:25:07;3.08;;;2.30;;
57730;SDS011;43570;47.476;19.040;2022-07-04T10:27:33;11.20;;;6.03;;
57730;SDS011;43570;47.476;19.040;2022-07-04T10:29:59;5.82;;;3.20;;
57730;SDS011;43570;47.476;19.040;2022-07-04T10:32:26;8.65;;;4.68;;
57730;SDS011;43570;47.476;19.040;2022-07-04T10:34:52;5.07;;;3.40;;
57730;SDS011;43570;47.476;19.040;2022-07-04T10:37:17;4.18;;;2.45;;
57730;SDS011;43570;47.476;19.040;2022-07-04T10:39:43;7.25;;;4.68;;
57730;SDS011;43570;47.476;19.040;2022-07-04T10:42:08;7.97;;;4.30;;
57730;SDS011;43570;47.476;19.040;2022-07-04T10:44:34;4.85;;;3.85;;
57730;SDS011;43570;47.476;19.040;2022-07-04T10:49:28;6.07;;;2.17;;
57730;SDS011;43570;47.476;19.040;2022-07-04T10:51:55;3.08;;;1.85;;
57730;SDS011;43570;47.476;19.040;2022-07-04T10:59:21;2.60;;;1.75;;
57730;SDS011;43570;47.476;19.040;2022-07-04T11:02:20;5.72;;;2.12;;
57730;SDS011;43570;47.476;19.040;2022-07-04T11:18:02;5.10;;;1.60;;
57730;SDS011;43570;47.476;19.040;2022-07-04T11:20:30;3.97;;;2.42;;
57730;SDS011;43570;47.476;19.040;2022-07-04T11:23:03;3.08;;;1.70;;
57730;SDS011;43570;47.476;19.040;2022-07-04T11:25:32;5.53;;;1.92;;
57730;SDS011;43570;47.476;19.040;2022-07-04T11:27:57;6.10;;;4.72;;
57730;SDS011;43570;47.476;19.040;2022-07-04T11:30:23;4.35;;;1.58;;
57730;SDS011;43570;47.476;19.040;2022-07-04T11:32:48;6.87;;;3.08;;
57730;SDS011;43570;47.476;19.040;2022-07-04T11:35:14;2.75;;;1.85;;
57730;SDS011;43570;47.476;19.040;2022-07-04T11:37:45;5.12;;;2.20;;
57730;SDS011;43570;47.476;19.040;2022-07-04T11:40:10;3.85;;;1.50;;
57730;SDS011;43570;47.476;19.040;2022-07-04T11:43:04;1.95;;;1.77;;
57730;SDS011;43570;47.476;19.040;2022-07-04T11:45:49;2.10;;;1.60;;
57730;SDS011;43570;47.476;19.040;2022-07-04T11:48:21;5.05;;;2.45;;
57730;SDS011;43570;47.476;19.040;2022-07-04T11:50:47;2.85;;;1.92;;
57730;SDS011;43570;47.476;19.040;2022-07-04T11:53:13;1.98;;;1.70;;
57730;SDS011;43570;47.476;19.040;2022-07-04T11:55:38;4.07;;;1.85;;
57730;SDS011;43570;47.476;19.040;2022-07-04T11:58:03;4.62;;;1.95;;
57730;SDS011;43570;47.476;19.040;2022-07-04T12:00:29;7.25;;;1.80;;
57730;SDS011;43570;47.476;19.040;2022-07-04T12:02:58;3.75;;;2.00;;
57730;SDS011;43570;47.476;19.040;2022-07-04T12:05:24;3.42;;;1.98;;
57730;SDS011;43570;47.476;19.040;2022-07-04T12:07:50;2.42;;;2.00;;
57730;SDS011;43570;47.476;19.040;2022-07-04T12:10:22;2.92;;;2.15;;
57730;SDS011;43570;47.476;19.040;2022-07-04T12:15:21;2.85;;;1.85;;
57730;SDS011;43570;47.476;19.040;2022-07-04T12:17:52;28.43;;;3.87;;
57730;SDS011;43570;47.476;19.040;2022-07-04T12:20:20;3.33;;;1.85;;
57730;SDS011;43570;47.476;19.040;2022-07-04T12:25:40;3.12;;;1.65;;
57730;SDS011;43570;47.476;19.040;2022-07-04T12:28:09;2.60;;;1.62;;
57730;SDS011;43570;47.476;19.040;2022-07-04T12:30:36;4.03;;;1.83;;
57730;SDS011;43570;47.476;19.040;2022-07-04T12:33:26;3.12;;;1.50;;
57730;SDS011;43570;47.476;19.040;2022-07-04T12:35:59;2.30;;;1.50;;
57730;SDS011;43570;47.476;19.040;2022-07-04T12:46:30;2.62;;;2.10;;
57730;SDS011;43570;47.476;19.040;2022-07-04T12:48:56;4.57;;;2.22;;
57730;SDS011;43570;47.476;19.040;2022-07-04T12:51:26;3.97;;;1.98;;
57730;SDS011;43570;47.476;19.040;2022-07-04T12:53:54;2.87;;;1.70;;
57730;SDS011;43570;47.476;19.040;2022-07-04T12:58:59;5.10;;;2.85;;
57730;SDS011;43570;47.476;19.040;2022-07-04T13:01:25;3.43;;;1.93;;
57730;SDS011;43570;47.476;19.040;2022-07-04T13:03:51;2.42;;;1.60;;
57730;SDS011;43570;47.476;19.040;2022-07-04T13:06:17;3.97;;;2.10;;
57730;SDS011;43570;47.476;19.040;2022-07-04T13:08:42;2.70;;;1.73;;
57730;SDS011;43570;47.476;19.040;2022-07-04T13:11:08;3.85;;;2.30;;
57730;SDS011;43570;47.476;19.040;2022-07-04T13:13:52;4.78;;;1.87;;
57730;SDS011;43570;47.476;19.040;2022-07-04T13:16:18;4.55;;;2.70;;
57730;SDS011;43570;47.476;19.040;2022-07-04T13:18:43;2.47;;;1.90;;
57730;SDS011;43570;47.476;19.040;2022-07-04T13:21:08;6.55;;;4.07;;
57730;SDS011;43570;47.476;19.040;2022-07-04T13:23:34;3.65;;;2.10;;
57730;SDS011;43570;47.476;19.040;2022-07-04T13:26:00;3.62;;;1.70;;
57730;SDS011;43570;47.476;19.040;2022-07-04T13:28:25;5.35;;;1.77;;
57730;SDS011;43570;47.476;19.040;2022-07-04T13:30:51;4.70;;;2.20;;
57730;SDS011;43570;47.476;19.040;2022-07-04T13:33:16;4.00;;;2.15;;
57730;SDS011;43570;47.476;19.040;2022-07-04T13:35:42;3.83;;;1.80;;
57730;SDS011;43570;47.476;19.040;2022-07-04T13:38:07;2.15;;;1.77;;
57730;SDS011;43570;47.476;19.040;2022-07-04T13:40:32;5.87;;;2.03;;
57730;SDS011;43570;47.476;19.040;2022-07-04T13:42:58;3.35;;;1.77;;
57730;SDS011;43570;47.476;19.040;2022-07-04T13:45:24;3.37;;;1.90;;
57730;SDS011;43570;47.476;19.040;2022-07-04T13:47:50;5.40;;;2.10;;
57730;SDS011;43570;47.476;19.040;2022-07-04T13:50:16;3.55;;;1.95;;
57730;SDS011;43570;47.476;19.040;2022-07-04T13:52:42;3.28;;;1.98;;
57730;SDS011;43570;47.476;19.040;2022-07-04T13:55:08;4.80;;;2.10;;
57730;SDS011;43570;47.476;19.040;2022-07-04T13:57:33;3.62;;;1.87;;
57730;SDS011;43570;47.476;19.040;2022-07-04T13:59:59;8.77;;;2.00;;
57730;SDS011;43570;47.476;19.040;2022-07-04T14:02:24;5.03;;;2.17;;
57730;SDS011;43570;47.476;19.040;2022-07-04T14:04:49;2.20;;;2.00;;
57730;SDS011;43570;47.476;19.040;2022-07-04T14:07:15;3.37;;;2.00;;
57730;SDS011;43570;47.476;19.040;2022-07-04T14:09:40;4.20;;;2.00;;
57730;SDS011;43570;47.476;19.040;2022-07-04T14:12:06;5.45;;;2.20;;
57730;SDS011;43570;47.476;19.040;2022-07-04T14:14:31;4.43;;;2.30;;
57730;SDS011;43570;47.476;19.040;2022-07-04T14:16:57;4.35;;;2.30;;
57730;SDS011;43570;47.476;19.040;2022-07-04T14:19:23;6.22;;;2.30;;
57730;SDS011;43570;47.476;19.040;2022-07-04T14:21:48;4.55;;;2.42;;
57730;SDS011;43570;47.476;19.040;2022-07-04T14:24:14;5.30;;;2.95;;
57730;SDS011;43570;47.476;19.040;2022-07-04T14:26:39;3.83;;;2.08;;
57730;SDS011;43570;47.476;19.040;2022-07-04T14:29:07;4.53;;;1.80;;
57730;SDS011;43570;47.476;19.040;2022-07-04T14:31:32;3.67;;;2.10;;
57730;SDS011;43570;47.476;19.040;2022-07-04T14:33:58;3.03;;;2.05;;
57730;SDS011;43570;47.476;19.040;2022-07-04T14:36:23;4.10;;;2.08;;
57730;SDS011;43570;47.476;19.040;2022-07-04T14:38:48;3.67;;;2.53;;
57730;SDS011;43570;47.476;19.040;2022-07-04T14:41:14;4.87;;;2.25;;
57730;SDS011;43570;47.476;19.040;2022-07-04T14:43:40;4.85;;;2.50;;
57730;SDS011;43570;47.476;19.040;2022-07-04T14:46:07;3.30;;;2.10;;
57730;SDS011;43570;47.476;19.040;2022-07-04T14:48:32;4.20;;;2.10;;
57730;SDS011;43570;47.476;19.040;2022-07-04T14:50:58;5.22;;;2.20;;
57730;SDS011;43570;47.476;19.040;2022-07-04T14:53:24;5.50;;;2.25;;
57730;SDS011;43570;47.476;19.040;2022-07-04T14:55:50;2.90;;;2.17;;
57730;SDS011;43570;47.476;19.040;2022-07-04T14:58:16;1.65;;;1.55;;
57730;SDS011;43570;47.476;19.040;2022-07-04T15:00:41;4.45;;;1.80;;
57730;SDS011;43570;47.476;19.040;2022-07-04T15:03:06;7.62;;;3.40;;
57730;SDS011;43570;47.476;19.040;2022-07-04T15:05:32;3.90;;;2.15;;
57730;SDS011;43570;47.476;19.040;2022-07-04T15:07:57;7.60;;;3.37;;
57730;SDS011;43570;47.476;19.040;2022-07-04T15:10:23;3.45;;;2.00;;
57730;SDS011;43570;47.476;19.040;2022-07-04T15:12:49;2.22;;;1.92;;
57730;SDS011;43570;47.476;19.040;2022-07-04T15:15:14;5.47;;;2.00;;